createdAt,value
2018-09-02T00:00:42.265Z,0
2018-09-02T00:01:43.625Z,0
2018-09-02T00:02:44.973Z,0
2018-09-02T00:03:46.336Z,0
2018-09-02T00:04:47.680Z,0
2018-09-02T00:05:49.050Z,0
2018-09-02T00:06:50.413Z,0
2018-09-02T00:07:51.775Z,0
2018-09-02T00:08:53.131Z,0
2018-09-02T00:09:54.493Z,0
2018-09-02T00:10:55.847Z,0
2018-09-02T00:11:57.223Z,0
2018-09-02T00:12:58.576Z,0
2018-09-02T00:13:59.944Z,0
2018-09-02T00:15:01.308Z,0
2018-09-02T00:16:02.656Z,0
2018-09-02T00:17:04.054Z,0
2018-09-02T00:18:05.373Z,0
2018-09-02T00:19:06.750Z,0
2018-09-02T00:20:08.116Z,0
2018-09-02T00:21:09.467Z,0
2018-09-02T00:22:10.826Z,0
2018-09-02T00:23:12.200Z,0
2018-09-02T00:24:13.566Z,0
2018-09-02T00:25:14.912Z,0
2018-09-02T00:26:16.273Z,0
2018-09-02T00:27:17.637Z,0
2018-09-02T00:28:18.992Z,0
2018-09-02T00:29:20.346Z,0
2018-09-02T00:30:21.732Z,0
2018-09-02T00:31:23.067Z,0
2018-09-02T00:32:24.431Z,0
2018-09-02T00:33:25.783Z,0
2018-09-02T00:34:27.141Z,0
2018-09-02T00:35:28.503Z,0
2018-09-02T00:36:29.862Z,0
2018-09-02T00:37:31.222Z,0
2018-09-02T00:38:32.566Z,0
2018-09-02T00:39:33.932Z,0
2018-09-02T00:40:35.297Z,0
2018-09-02T00:41:36.648Z,0
2018-09-02T00:42:38.018Z,0
2018-09-02T00:43:39.372Z,0
2018-09-02T00:44:40.744Z,0
2018-09-02T00:45:42.101Z,0
2018-09-02T00:46:43.473Z,0
2018-09-02T00:47:44.831Z,0
2018-09-02T00:48:47.868Z,0
2018-09-02T00:49:49.347Z,0
2018-09-02T00:50:50.712Z,0
2018-09-02T00:51:52.075Z,0
2018-09-02T00:52:53.453Z,0
2018-09-02T00:53:54.814Z,0
2018-09-02T00:54:56.177Z,0
2018-09-02T00:55:57.531Z,0
2018-09-02T00:56:58.896Z,0
2018-09-02T00:58:00.251Z,0
2018-09-02T00:59:01.605Z,0
2018-09-02T01:00:02.996Z,0
2018-09-02T01:01:04.352Z,0
2018-09-02T01:02:05.714Z,0
2018-09-02T01:03:07.071Z,0
2018-09-02T01:04:08.434Z,0
2018-09-02T01:05:09.790Z,0
2018-09-02T01:06:11.168Z,0
2018-09-02T01:07:12.526Z,0
2018-09-02T01:08:13.896Z,0
2018-09-02T01:09:15.257Z,0
2018-09-02T01:10:16.612Z,0
2018-09-02T01:11:17.979Z,0
2018-09-02T01:12:19.328Z,0
2018-09-02T01:13:20.688Z,0
2018-09-02T01:14:22.046Z,0
2018-09-02T01:15:23.410Z,0
2018-09-02T01:16:24.777Z,0
2018-09-02T01:17:26.144Z,0
2018-09-02T01:18:27.511Z,0
2018-09-02T01:19:28.862Z,0
2018-09-02T01:20:30.215Z,0
2018-09-02T01:21:31.572Z,0
2018-09-02T01:22:32.932Z,0
2018-09-02T01:23:34.282Z,0
2018-09-02T01:24:35.642Z,0
2018-09-02T01:25:37.012Z,0
2018-09-02T01:26:38.353Z,0
2018-09-02T01:27:39.756Z,0
2018-09-02T01:28:41.108Z,0
2018-09-02T01:29:42.473Z,0
2018-09-02T01:30:43.833Z,0
2018-09-02T01:31:45.202Z,0
2018-09-02T01:32:46.557Z,0
2018-09-02T01:33:47.918Z,0
2018-09-02T01:34:49.278Z,0
2018-09-02T01:35:50.637Z,0
2018-09-02T01:36:51.989Z,0
2018-09-02T01:37:53.353Z,0
2018-09-02T01:38:54.709Z,0
2018-09-02T01:39:56.076Z,0
2018-09-02T01:40:57.431Z,0
2018-09-02T01:41:58.787Z,0
2018-09-02T01:43:00.181Z,0
2018-09-02T01:44:01.505Z,0
2018-09-02T01:45:02.864Z,0
2018-09-02T01:46:04.234Z,0
2018-09-02T01:47:05.602Z,0
2018-09-02T01:48:06.956Z,0
2018-09-02T01:49:08.312Z,0
2018-09-02T01:50:09.687Z,0
2018-09-02T01:51:11.055Z,0
2018-09-02T01:52:12.447Z,0
2018-09-02T01:53:13.816Z,0
2018-09-02T01:54:15.184Z,0
2018-09-02T01:55:16.547Z,0
2018-09-02T01:56:17.898Z,0
2018-09-02T01:57:19.269Z,0
2018-09-02T01:58:20.632Z,0
2018-09-02T01:59:21.988Z,0
2018-09-02T02:00:23.342Z,0
2018-09-02T02:01:24.711Z,0
2018-09-02T02:02:26.072Z,0
2018-09-02T02:03:27.423Z,0
2018-09-02T02:04:28.782Z,0
2018-09-02T02:05:30.143Z,0
2018-09-02T02:06:31.503Z,0
2018-09-02T02:07:32.862Z,0
2018-09-02T02:08:34.261Z,0
2018-09-02T02:09:35.593Z,0
2018-09-02T02:10:36.948Z,0
2018-09-02T02:11:38.318Z,0
2018-09-02T02:12:39.673Z,0
2018-09-02T02:13:41.034Z,0
2018-09-02T02:14:42.405Z,0
2018-09-02T02:15:43.838Z,0
2018-09-02T02:16:45.203Z,0
2018-09-02T02:17:46.578Z,0
2018-09-02T02:18:47.938Z,0
2018-09-02T02:19:49.384Z,0
2018-09-02T02:20:50.738Z,0
2018-09-02T02:21:52.103Z,0
2018-09-02T02:22:53.458Z,0
2018-09-02T02:23:54.831Z,0
2018-09-02T02:24:56.184Z,0
2018-09-02T02:25:57.535Z,0
2018-09-02T02:26:58.902Z,0
2018-09-02T02:28:00.267Z,0
2018-09-02T02:29:01.632Z,0
2018-09-02T02:30:02.993Z,0
2018-09-02T02:31:04.343Z,0
2018-09-02T02:32:05.702Z,0
2018-09-02T02:33:07.066Z,0
2018-09-02T02:34:08.422Z,0
2018-09-02T02:35:09.782Z,0
2018-09-02T02:36:11.149Z,0
2018-09-02T02:37:12.531Z,0
2018-09-02T02:38:13.885Z,0
2018-09-02T02:39:15.257Z,0
2018-09-02T02:40:16.620Z,0
2018-09-02T02:41:17.977Z,0
2018-09-02T02:42:19.342Z,0
2018-09-02T02:43:20.705Z,0
2018-09-02T02:44:22.055Z,0
2018-09-02T02:45:23.426Z,0
2018-09-02T02:46:24.780Z,0
2018-09-02T02:47:26.147Z,0
2018-09-02T02:48:27.503Z,0
2018-09-02T02:49:28.868Z,0
2018-09-02T02:50:30.224Z,0
2018-09-02T02:51:31.590Z,0
2018-09-02T02:52:32.948Z,0
2018-09-02T02:53:34.308Z,0
2018-09-02T02:54:35.677Z,0
2018-09-02T02:55:37.034Z,0
2018-09-02T02:56:38.388Z,0
2018-09-02T02:57:39.771Z,0
2018-09-02T02:58:41.154Z,0
2018-09-02T02:59:42.506Z,0
2018-09-02T03:00:43.854Z,0
2018-09-02T03:01:45.225Z,0
2018-09-02T03:02:46.580Z,0
2018-09-02T03:03:47.941Z,0
2018-09-02T03:04:49.310Z,0
2018-09-02T03:05:50.678Z,0
2018-09-02T03:06:52.023Z,0
2018-09-02T03:07:53.388Z,0
2018-09-02T03:08:54.739Z,0
2018-09-02T03:09:56.104Z,0
2018-09-02T03:10:57.463Z,0
2018-09-02T03:11:58.824Z,0
2018-09-02T03:13:00.190Z,0
2018-09-02T03:14:01.549Z,0
2018-09-02T03:15:02.905Z,0
2018-09-02T03:16:04.261Z,0
2018-09-02T03:17:05.626Z,0
2018-09-02T03:18:06.990Z,0
2018-09-02T03:19:08.348Z,0
2018-09-02T03:20:09.703Z,0
2018-09-02T03:21:50.554Z,0
2018-09-02T03:22:51.911Z,0
2018-09-02T03:24:13.427Z,0
2018-09-02T03:25:14.783Z,0
2018-09-02T03:26:36.253Z,0
2018-09-02T03:27:37.605Z,0
2018-09-02T03:28:59.241Z,0
2018-09-02T03:30:00.652Z,0
2018-09-02T03:31:01.989Z,0
2018-09-02T03:32:03.361Z,0
2018-09-02T03:33:04.720Z,0
2018-09-02T03:34:06.080Z,0
2018-09-02T03:35:07.451Z,0
2018-09-02T03:36:08.805Z,0
2018-09-02T03:37:10.169Z,0
2018-09-02T03:38:11.531Z,0
2018-09-02T03:39:12.894Z,0
2018-09-02T03:40:14.245Z,0
2018-09-02T03:41:15.610Z,0
2018-09-02T03:42:16.965Z,0
2018-09-02T03:43:18.321Z,0
2018-09-02T03:44:19.675Z,0
2018-09-02T03:45:21.025Z,0
2018-09-02T03:46:22.401Z,0
2018-09-02T03:47:23.758Z,0
2018-09-02T03:48:25.116Z,0
2018-09-02T03:49:26.478Z,0
2018-09-02T03:50:28.528Z,0
2018-09-02T03:51:29.878Z,0
2018-09-02T03:52:31.239Z,0
2018-09-02T03:53:32.598Z,0
2018-09-02T03:54:33.954Z,0
2018-09-02T03:55:35.300Z,0
2018-09-02T03:56:36.659Z,0
2018-09-02T03:57:38.027Z,0
2018-09-02T03:58:39.397Z,0
2018-09-02T03:59:40.756Z,0
2018-09-02T04:00:42.122Z,0
2018-09-02T04:01:43.469Z,0
2018-09-02T04:02:44.839Z,0
2018-09-02T04:03:46.196Z,0
2018-09-02T04:04:47.555Z,0
2018-09-02T04:05:48.903Z,0
2018-09-02T04:06:50.266Z,0
2018-09-02T04:07:51.616Z,0
2018-09-02T04:08:52.980Z,0
2018-09-02T04:09:54.337Z,0
2018-09-02T04:10:55.705Z,0
2018-09-02T04:11:57.071Z,0
2018-09-02T04:12:58.419Z,0
2018-09-02T04:13:59.769Z,0
2018-09-02T04:15:01.124Z,0
2018-09-02T04:16:02.491Z,0
2018-09-02T04:17:03.844Z,0
2018-09-02T04:18:05.200Z,0
2018-09-02T04:19:06.559Z,0
2018-09-02T04:20:07.929Z,0
2018-09-02T04:21:09.286Z,0
2018-09-02T04:22:10.653Z,0
2018-09-02T04:23:12.002Z,0
2018-09-02T04:24:13.367Z,0
2018-09-02T04:25:14.724Z,0
2018-09-02T04:26:16.090Z,0
2018-09-02T04:27:33.599Z,0
2018-09-02T04:28:34.980Z,0
2018-09-02T04:29:36.344Z,0
2018-09-02T04:30:37.711Z,0
2018-09-02T04:31:39.061Z,0
2018-09-02T04:32:40.422Z,0
2018-09-02T04:33:41.853Z,5
2018-09-02T04:34:43.120Z,5
2018-09-02T04:35:44.464Z,5
2018-09-02T04:36:45.832Z,5
2018-09-02T04:37:47.221Z,5
2018-09-02T04:38:48.569Z,5
2018-09-02T04:39:49.930Z,5
2018-09-02T04:40:51.296Z,11
2018-09-02T04:41:52.651Z,11
2018-09-02T04:42:54.017Z,11
2018-09-02T04:43:55.379Z,11
2018-09-02T04:44:56.736Z,11
2018-09-02T04:45:58.091Z,11
2018-09-02T04:46:59.460Z,16
2018-09-02T04:48:00.810Z,16
2018-09-02T04:49:02.185Z,16
2018-09-02T04:50:03.542Z,16
2018-09-02T04:51:04.912Z,16
2018-09-02T04:52:06.300Z,16
2018-09-02T04:53:07.702Z,22
2018-09-02T04:54:09.081Z,22
2018-09-02T04:55:10.430Z,22
2018-09-02T04:56:11.786Z,28
2018-09-02T04:57:13.163Z,28
2018-09-02T04:58:14.516Z,28
2018-09-02T04:59:15.875Z,28
2018-09-02T05:00:18.128Z,33
2018-09-02T05:01:19.436Z,33
2018-09-02T05:02:20.797Z,33
2018-09-02T05:03:22.167Z,33
2018-09-02T05:04:23.528Z,33
2018-09-02T05:05:24.894Z,33
2018-09-02T05:06:26.249Z,33
2018-09-02T05:07:27.611Z,39
2018-09-02T05:08:28.982Z,39
2018-09-02T05:09:30.348Z,39
2018-09-02T05:10:31.716Z,39
2018-09-02T05:11:33.080Z,39
2018-09-02T05:12:34.440Z,45
2018-09-02T05:13:35.815Z,45
2018-09-02T05:14:37.186Z,45
2018-09-02T05:15:38.549Z,45
2018-09-02T05:16:39.912Z,45
2018-09-02T05:17:41.259Z,45
2018-09-02T05:18:42.638Z,45
2018-09-02T05:19:44.002Z,45
2018-09-02T05:20:45.366Z,45
2018-09-02T05:21:46.715Z,39
2018-09-02T05:22:48.076Z,39
2018-09-02T05:23:49.445Z,39
2018-09-02T05:24:50.791Z,45
2018-09-02T05:25:52.166Z,45
2018-09-02T05:26:53.520Z,50
2018-09-02T05:27:54.884Z,50
2018-09-02T05:28:56.258Z,56
2018-09-02T05:29:57.620Z,56
2018-09-02T05:30:58.982Z,61
2018-09-02T05:32:00.352Z,61
2018-09-02T05:33:01.714Z,67
2018-09-02T05:34:03.065Z,73
2018-09-02T05:35:04.427Z,78
2018-09-02T05:36:05.795Z,84
2018-09-02T05:37:07.164Z,90
2018-09-02T05:38:08.533Z,95
2018-09-02T05:39:09.900Z,101
2018-09-02T05:40:11.262Z,106
2018-09-02T05:41:12.612Z,118
2018-09-02T05:42:13.977Z,118
2018-09-02T05:43:15.335Z,118
2018-09-02T05:44:16.702Z,123
2018-09-02T05:45:18.068Z,135
2018-09-02T05:46:19.436Z,140
2018-09-02T05:47:20.803Z,146
2018-09-02T05:48:22.162Z,157
2018-09-02T05:49:23.527Z,163
2018-09-02T05:50:24.904Z,168
2018-09-02T05:51:26.261Z,180
2018-09-02T05:52:27.632Z,185
2018-09-02T05:53:28.998Z,191
2018-09-02T05:54:30.370Z,196
2018-09-02T05:55:31.738Z,202
2018-09-02T05:56:33.107Z,208
2018-09-02T05:57:34.513Z,208
2018-09-02T05:58:35.803Z,213
2018-09-02T05:59:37.168Z,225
2018-09-02T06:00:38.528Z,236
2018-09-02T06:01:39.896Z,241
2018-09-02T06:02:41.273Z,247
2018-09-02T06:03:42.616Z,253
2018-09-02T06:04:43.990Z,270
2018-09-02T06:05:45.352Z,275
2018-09-02T06:06:46.728Z,281
2018-09-02T06:07:48.086Z,281
2018-09-02T06:08:49.460Z,286
2018-09-02T06:09:50.823Z,286
2018-09-02T06:10:52.196Z,292
2018-09-02T06:11:53.574Z,309
2018-09-02T06:12:54.941Z,315
2018-09-02T06:13:56.304Z,320
2018-09-02T06:14:57.666Z,331
2018-09-02T06:15:59.042Z,331
2018-09-02T06:17:00.406Z,331
2018-09-02T06:18:01.764Z,343
2018-09-02T06:19:03.205Z,348
2018-09-02T06:20:04.570Z,348
2018-09-02T06:21:05.954Z,343
2018-09-02T06:22:07.314Z,343
2018-09-02T06:23:08.682Z,337
2018-09-02T06:24:10.044Z,337
2018-09-02T06:25:11.399Z,331
2018-09-02T06:26:12.772Z,315
2018-09-02T06:27:14.141Z,309
2018-09-02T06:28:15.513Z,315
2018-09-02T06:29:16.875Z,298
2018-09-02T06:30:18.234Z,292
2018-09-02T06:31:19.598Z,292
2018-09-02T06:32:20.967Z,286
2018-09-02T06:33:22.331Z,298
2018-09-02T06:34:23.703Z,303
2018-09-02T06:35:25.134Z,315
2018-09-02T06:36:26.466Z,309
2018-09-02T06:37:27.807Z,303
2018-09-02T06:38:29.173Z,298
2018-09-02T06:39:30.585Z,303
2018-09-02T06:40:31.907Z,303
2018-09-02T06:41:33.281Z,303
2018-09-02T06:42:34.657Z,303
2018-09-02T06:43:36.014Z,303
2018-09-02T06:44:37.382Z,303
2018-09-02T06:45:38.811Z,303
2018-09-02T06:46:40.119Z,303
2018-09-02T06:47:41.517Z,303
2018-09-02T06:48:42.888Z,303
2018-09-02T06:49:44.255Z,303
2018-09-02T06:50:45.633Z,298
2018-09-02T06:51:47.005Z,292
2018-09-02T06:52:48.374Z,281
2018-09-02T06:53:49.738Z,275
2018-09-02T06:54:51.114Z,270
2018-09-02T06:55:52.482Z,270
2018-09-02T06:56:53.848Z,275
2018-09-02T06:57:55.210Z,275
2018-09-02T06:58:56.574Z,281
2018-09-02T06:59:57.953Z,286
2018-09-02T07:00:59.319Z,292
2018-09-02T07:02:00.690Z,309
2018-09-02T07:03:02.054Z,315
2018-09-02T07:04:03.432Z,320
2018-09-02T07:05:04.802Z,331
2018-09-02T07:06:06.163Z,337
2018-09-02T07:07:07.549Z,343
2018-09-02T07:08:08.904Z,354
2018-09-02T07:09:10.263Z,371
2018-09-02T07:10:11.638Z,393
2018-09-02T07:11:13.013Z,416
2018-09-02T07:12:14.387Z,433
2018-09-02T07:13:15.747Z,450
2018-09-02T07:14:17.146Z,472
2018-09-02T07:15:18.463Z,478
2018-09-02T07:16:19.823Z,483
2018-09-02T07:17:21.236Z,483
2018-09-02T07:18:22.602Z,495
2018-09-02T07:19:23.954Z,500
2018-09-02T07:20:25.328Z,511
2018-09-02T07:21:26.698Z,523
2018-09-02T07:22:28.058Z,528
2018-09-02T07:23:29.423Z,540
2018-09-02T07:24:30.813Z,562
2018-09-02T07:25:32.184Z,579
2018-09-02T07:26:33.550Z,585
2018-09-02T07:27:34.924Z,618
2018-09-02T07:28:36.298Z,652
2018-09-02T07:29:37.672Z,680
2018-09-02T07:30:39.038Z,697
2018-09-02T07:31:40.412Z,691
2018-09-02T07:32:41.769Z,697
2018-09-02T07:33:43.138Z,720
2018-09-02T07:34:44.514Z,742
2018-09-02T07:35:45.887Z,753
2018-09-02T07:36:47.266Z,798
2018-09-02T07:37:48.633Z,815
2018-09-02T07:38:50.013Z,826
2018-09-02T07:39:51.384Z,826
2018-09-02T07:40:52.764Z,843
2018-09-02T07:41:54.138Z,860
2018-09-02T07:42:55.499Z,866
2018-09-02T07:43:56.875Z,877
2018-09-02T07:44:58.240Z,860
2018-09-02T07:45:59.628Z,832
2018-09-02T07:47:01.004Z,838
2018-09-02T07:48:02.377Z,883
2018-09-02T07:49:03.748Z,916
2018-09-02T07:50:05.153Z,888
2018-09-02T07:51:06.519Z,871
2018-09-02T07:52:07.893Z,866
2018-09-02T07:53:09.274Z,911
2018-09-02T07:54:10.645Z,973
2018-09-02T07:55:12.023Z,956
2018-09-02T07:56:13.383Z,933
2018-09-02T07:57:14.753Z,973
2018-09-02T07:58:16.151Z,950
2018-09-02T07:59:17.540Z,905
2018-09-02T08:00:18.894Z,877
2018-09-02T08:01:20.274Z,877
2018-09-02T08:02:21.643Z,860
2018-09-02T08:03:23.020Z,815
2018-09-02T08:04:24.409Z,787
2018-09-02T08:05:25.793Z,748
2018-09-02T08:06:27.180Z,697
2018-09-02T08:07:28.559Z,691
2018-09-02T08:08:29.932Z,703
2018-09-02T08:09:39.489Z,691
2018-09-02T08:10:40.863Z,663
2018-09-02T08:11:42.229Z,624
2018-09-02T08:12:43.720Z,618
2018-09-02T08:13:44.939Z,618
2018-09-02T08:14:46.314Z,630
2018-09-02T08:15:52.312Z,635
2018-09-02T08:16:53.885Z,652
2018-09-02T08:17:55.261Z,669
2018-09-02T08:18:57.310Z,691
2018-09-02T08:19:59.207Z,691
2018-09-02T08:21:04.745Z,686
2018-09-02T08:22:06.128Z,680
2018-09-02T08:23:10.759Z,686
2018-09-02T08:24:12.134Z,680
2018-09-02T08:25:14.596Z,652
2018-09-02T08:26:15.965Z,607
2018-09-02T08:27:17.344Z,568
2018-09-02T08:28:18.714Z,540
2018-09-02T08:29:20.095Z,545
2018-09-02T08:30:21.473Z,517
2018-09-02T08:31:22.836Z,495
2018-09-02T08:32:24.199Z,495
2018-09-02T08:33:25.579Z,517
2018-09-02T08:34:26.951Z,540
2018-09-02T08:35:28.320Z,562
2018-09-02T08:36:29.694Z,568
2018-09-02T08:37:31.055Z,551
2018-09-02T08:38:32.445Z,517
2018-09-02T08:39:34.700Z,517
2018-09-02T08:40:36.073Z,551
2018-09-02T08:41:37.460Z,556
2018-09-02T08:42:38.820Z,540
2018-09-02T08:43:40.194Z,528
2018-09-02T08:44:41.570Z,511
2018-09-02T08:45:42.950Z,483
2018-09-02T08:46:44.318Z,466
2018-09-02T08:47:45.689Z,461
2018-09-02T08:48:47.064Z,455
2018-09-02T08:49:48.583Z,433
2018-09-02T08:50:49.920Z,399
2018-09-02T08:51:51.299Z,382
2018-09-02T08:52:52.678Z,376
2018-09-02T08:53:54.035Z,376
2018-09-02T08:54:55.416Z,399
2018-09-02T08:55:56.805Z,416
2018-09-02T08:56:58.957Z,410
2018-09-02T08:58:01.176Z,427
2018-09-02T08:59:04.340Z,438
2018-09-02T09:00:06.505Z,450
2018-09-02T09:01:09.106Z,461
2018-09-02T09:02:11.195Z,466
2018-09-02T09:03:13.357Z,472
2018-09-02T09:04:14.620Z,455
2018-09-02T09:05:16.005Z,450
2018-09-02T09:06:17.380Z,455
2018-09-02T09:07:18.804Z,483
2018-09-02T09:08:20.297Z,511
2018-09-02T09:09:21.589Z,500
2018-09-02T09:10:22.811Z,472
2018-09-02T09:11:24.190Z,472
2018-09-02T09:12:25.584Z,506
2018-09-02T09:13:26.960Z,517
2018-09-02T09:14:28.329Z,489
2018-09-02T09:15:29.705Z,478
2018-09-02T09:16:31.080Z,466
2018-09-02T09:17:32.450Z,455
2018-09-02T09:18:33.856Z,461
2018-09-02T09:19:35.248Z,483
2018-09-02T09:20:36.616Z,500
2018-09-02T09:22:17.586Z,500
2018-09-02T09:23:18.956Z,478
2018-09-02T09:24:20.320Z,455
2018-09-02T09:25:21.680Z,444
2018-09-02T09:26:23.275Z,472
2018-09-02T09:27:24.589Z,500
2018-09-02T09:28:25.950Z,500
2018-09-02T09:29:27.327Z,511
2018-09-02T09:30:28.699Z,528
2018-09-02T09:31:30.065Z,523
2018-09-02T09:32:31.441Z,523
2018-09-02T09:33:32.812Z,551
2018-09-02T09:34:34.175Z,579
2018-09-02T09:35:35.546Z,607
2018-09-02T09:36:36.921Z,630
2018-09-02T09:37:38.331Z,641
2018-09-02T09:38:39.729Z,652
2018-09-02T09:39:41.404Z,663
2018-09-02T09:40:42.825Z,697
2018-09-02T09:41:44.196Z,753
2018-09-02T09:42:45.572Z,804
2018-09-02T09:43:46.949Z,894
2018-09-02T09:44:48.332Z,877
2018-09-02T09:45:49.763Z,821
2018-09-02T09:46:51.066Z,770
2018-09-02T09:47:52.445Z,725
2018-09-02T09:48:53.810Z,708
2018-09-02T09:49:55.179Z,703
2018-09-02T09:50:56.561Z,708
2018-09-02T09:51:57.931Z,714
2018-09-02T09:52:59.291Z,725
2018-09-02T09:54:00.675Z,736
2018-09-02T09:55:02.040Z,736
2018-09-02T09:56:03.414Z,742
2018-09-02T09:57:04.781Z,776
2018-09-02T09:58:06.151Z,815
2018-09-02T09:59:07.520Z,849
2018-09-02T10:00:08.896Z,883
2018-09-02T10:01:10.286Z,928
2018-09-02T10:02:11.663Z,933
2018-09-02T10:03:13.054Z,928
2018-09-02T10:04:14.429Z,911
2018-09-02T10:05:15.795Z,860
2018-09-02T10:06:17.169Z,787
2018-09-02T10:07:18.543Z,736
2018-09-02T10:08:19.917Z,697
2018-09-02T10:09:21.290Z,669
2018-09-02T10:10:22.664Z,658
2018-09-02T10:11:24.042Z,658
2018-09-02T10:12:25.412Z,658
2018-09-02T10:13:26.792Z,663
2018-09-02T10:14:28.214Z,691
2018-09-02T10:15:29.578Z,703
2018-09-02T10:16:30.950Z,697
2018-09-02T10:17:32.322Z,691
2018-09-02T10:18:33.708Z,675
2018-09-02T10:19:35.092Z,635
2018-09-02T10:20:36.456Z,601
2018-09-02T10:21:37.830Z,579
2018-09-02T10:22:39.195Z,573
2018-09-02T10:23:40.571Z,579
2018-09-02T10:24:41.951Z,579
2018-09-02T10:25:43.336Z,590
2018-09-02T10:26:44.703Z,590
2018-09-02T10:27:46.082Z,607
2018-09-02T10:28:47.451Z,618
2018-09-02T10:29:48.962Z,630
2018-09-02T10:30:50.335Z,652
2018-09-02T10:31:51.736Z,680
2018-09-02T10:32:53.145Z,714
2018-09-02T10:33:54.517Z,753
2018-09-02T10:34:55.900Z,793
2018-09-02T10:35:57.261Z,832
2018-09-02T10:36:58.635Z,860
2018-09-02T10:38:00.001Z,843
2018-09-02T10:39:01.378Z,826
2018-09-02T10:40:02.746Z,838
2018-09-02T10:41:04.170Z,855
2018-09-02T10:42:05.493Z,883
2018-09-02T10:43:06.857Z,956
2018-09-02T10:44:08.226Z,1074
2018-09-02T10:45:09.600Z,1181
2018-09-02T10:46:10.975Z,1215
2018-09-02T10:47:12.346Z,1243
2018-09-02T10:48:13.712Z,1321
2018-09-02T10:49:15.101Z,1305
2018-09-02T10:50:16.448Z,1321
2018-09-02T10:51:17.831Z,1333
2018-09-02T10:52:19.202Z,1305
2018-09-02T10:53:20.611Z,1293
2018-09-02T10:54:21.988Z,1355
2018-09-02T10:55:23.362Z,1440
2018-09-02T10:56:24.731Z,1496
2018-09-02T10:57:26.115Z,1383
2018-09-02T10:58:27.490Z,1271
2018-09-02T10:59:28.881Z,1203
2018-09-02T11:00:30.246Z,1125
2018-09-02T11:01:31.616Z,1125
2018-09-02T11:02:32.998Z,1119
2018-09-02T11:03:34.372Z,1057
2018-09-02T11:04:35.748Z,1068
2018-09-02T11:05:37.131Z,1119
2018-09-02T11:06:38.507Z,1203
2018-09-02T11:07:39.935Z,1113
2018-09-02T11:08:41.280Z,916
2018-09-02T11:09:42.652Z,843
2018-09-02T11:10:44.023Z,849
2018-09-02T11:11:45.407Z,894
2018-09-02T11:12:46.792Z,939
2018-09-02T11:13:48.293Z,995
2018-09-02T11:14:49.503Z,1023
2018-09-02T11:15:51.807Z,1006
2018-09-02T11:16:53.198Z,961
2018-09-02T11:17:54.558Z,916
2018-09-02T11:18:55.969Z,860
2018-09-02T11:19:57.351Z,810
2018-09-02T11:20:58.727Z,781
2018-09-02T11:22:00.098Z,793
2018-09-02T11:23:01.468Z,720
2018-09-02T11:24:02.857Z,652
2018-09-02T11:25:04.242Z,630
2018-09-02T11:26:05.631Z,601
2018-09-02T11:27:06.997Z,585
2018-09-02T11:28:08.366Z,579
2018-09-02T11:29:09.771Z,590
2018-09-02T11:30:11.147Z,618
2018-09-02T11:31:12.528Z,641
2018-09-02T11:32:13.922Z,652
2018-09-02T11:33:15.298Z,658
2018-09-02T11:34:16.668Z,652
2018-09-02T11:35:18.061Z,652
2018-09-02T11:36:19.434Z,663
2018-09-02T11:37:20.807Z,652
2018-09-02T11:38:22.190Z,613
2018-09-02T11:39:23.556Z,568
2018-09-02T11:40:24.936Z,551
2018-09-02T11:41:26.320Z,568
2018-09-02T11:42:27.692Z,601
2018-09-02T11:43:29.057Z,652
2018-09-02T11:44:30.426Z,669
2018-09-02T11:45:31.829Z,630
2018-09-02T11:46:33.201Z,573
2018-09-02T11:47:34.566Z,511
2018-09-02T11:48:35.958Z,461
2018-09-02T11:49:37.334Z,433
2018-09-02T11:50:38.718Z,427
2018-09-02T11:51:40.104Z,433
2018-09-02T11:52:41.501Z,450
2018-09-02T11:53:42.901Z,472
2018-09-02T11:54:44.291Z,489
2018-09-02T11:55:45.679Z,511
2018-09-02T11:56:47.053Z,523
2018-09-02T11:57:48.453Z,523
2018-09-02T11:58:49.775Z,528
2018-09-02T11:59:51.133Z,540
2018-09-02T12:00:52.506Z,534
2018-09-02T12:01:53.879Z,517
2018-09-02T12:02:55.271Z,483
2018-09-02T12:03:56.658Z,466
2018-09-02T12:04:58.059Z,466
2018-09-02T12:05:59.391Z,495
2018-09-02T12:07:00.759Z,545
2018-09-02T12:08:02.136Z,618
2018-09-02T12:09:03.597Z,686
2018-09-02T12:10:04.952Z,770
2018-09-02T12:11:06.327Z,810
2018-09-02T12:12:07.708Z,776
2018-09-02T12:13:09.089Z,731
2018-09-02T12:14:10.467Z,697
2018-09-02T12:15:11.839Z,646
2018-09-02T12:16:13.248Z,601
2018-09-02T12:17:14.619Z,568
2018-09-02T12:18:15.991Z,562
2018-09-02T12:19:17.373Z,568
2018-09-02T12:20:18.756Z,556
2018-09-02T12:21:20.134Z,528
2018-09-02T12:22:21.508Z,511
2018-09-02T12:23:22.881Z,506
2018-09-02T12:24:24.257Z,506
2018-09-02T12:25:25.637Z,528
2018-09-02T12:26:27.006Z,579
2018-09-02T12:27:28.377Z,618
2018-09-02T12:28:29.745Z,652
2018-09-02T12:29:31.123Z,703
2018-09-02T12:30:32.488Z,742
2018-09-02T12:31:33.934Z,765
2018-09-02T12:32:35.279Z,753
2018-09-02T12:33:36.608Z,691
2018-09-02T12:34:37.984Z,652
2018-09-02T12:35:39.384Z,635
2018-09-02T12:36:40.764Z,624
2018-09-02T12:37:42.158Z,590
2018-09-02T12:38:43.566Z,545
2018-09-02T12:39:44.932Z,545
2018-09-02T12:40:46.303Z,573
2018-09-02T12:41:47.673Z,607
2018-09-02T12:42:49.043Z,585
2018-09-02T12:43:50.417Z,556
2018-09-02T12:44:51.787Z,545
2018-09-02T12:45:53.162Z,568
2018-09-02T12:46:54.548Z,596
2018-09-02T12:47:56.177Z,607
2018-09-02T12:48:57.507Z,562
2018-09-02T12:49:58.863Z,495
2018-09-02T12:51:00.222Z,433
2018-09-02T12:52:01.616Z,410
2018-09-02T12:53:02.979Z,393
2018-09-02T12:54:04.348Z,365
2018-09-02T12:55:05.786Z,337
2018-09-02T12:56:07.096Z,315
2018-09-02T12:57:08.472Z,303
2018-09-02T12:58:09.866Z,292
2018-09-02T12:59:11.228Z,281
2018-09-02T13:00:12.619Z,264
2018-09-02T13:01:13.984Z,253
2018-09-02T13:02:15.365Z,247
2018-09-02T13:03:16.738Z,258
2018-09-02T13:04:18.098Z,281
2018-09-02T13:05:19.469Z,303
2018-09-02T13:06:21.414Z,315
2018-09-02T13:07:22.789Z,320
2018-09-02T13:08:24.178Z,326
2018-09-02T13:09:25.604Z,348
2018-09-02T13:10:26.887Z,360
2018-09-02T13:11:28.266Z,371
2018-09-02T13:12:29.644Z,382
2018-09-02T13:13:31.017Z,388
2018-09-02T13:14:32.398Z,405
2018-09-02T13:15:33.767Z,416
2018-09-02T13:16:35.148Z,410
2018-09-02T13:17:36.530Z,399
2018-09-02T13:18:37.888Z,382
2018-09-02T13:19:39.294Z,365
2018-09-02T13:20:40.668Z,343
2018-09-02T13:21:42.032Z,331
2018-09-02T13:22:43.409Z,337
2018-09-02T13:23:44.771Z,360
2018-09-02T13:24:46.231Z,371
2018-09-02T13:25:47.484Z,360
2018-09-02T13:26:48.862Z,331
2018-09-02T13:27:50.232Z,315
2018-09-02T13:28:51.597Z,298
2018-09-02T13:29:52.976Z,286
2018-09-02T13:30:54.353Z,281
2018-09-02T13:31:55.810Z,281
2018-09-02T13:32:57.104Z,275
2018-09-02T13:33:58.464Z,275
2018-09-02T13:34:59.829Z,275
2018-09-02T13:36:01.208Z,281
2018-09-02T13:37:02.583Z,286
2018-09-02T13:38:03.945Z,286
2018-09-02T13:39:05.312Z,292
2018-09-02T13:40:06.708Z,292
2018-09-02T13:41:08.060Z,292
2018-09-02T13:42:09.442Z,281
2018-09-02T13:43:11.011Z,275
2018-09-02T13:44:12.323Z,281
2018-09-02T13:45:13.714Z,286
2018-09-02T13:46:15.090Z,292
2018-09-02T13:47:16.473Z,286
2018-09-02T13:48:17.868Z,286
2018-09-02T13:49:19.209Z,281
2018-09-02T13:50:20.572Z,281
2018-09-02T13:51:21.966Z,292
2018-09-02T13:52:23.280Z,298
2018-09-02T13:53:24.648Z,292
2018-09-02T13:54:26.029Z,286
2018-09-02T13:55:27.384Z,292
2018-09-02T13:56:28.761Z,303
2018-09-02T13:57:30.123Z,309
2018-09-02T13:58:31.498Z,309
2018-09-02T13:59:32.896Z,298
2018-09-02T14:00:34.259Z,292
2018-09-02T14:01:35.621Z,286
2018-09-02T14:02:36.995Z,281
2018-09-02T14:03:38.364Z,275
2018-09-02T14:04:40.923Z,270
2018-09-02T14:05:42.279Z,258
2018-09-02T14:06:43.651Z,253
2018-09-02T14:07:45.051Z,253
2018-09-02T14:08:46.433Z,247
2018-09-02T14:09:47.769Z,247
2018-09-02T14:10:49.138Z,241
2018-09-02T14:11:50.522Z,236
2018-09-02T14:12:51.881Z,230
2018-09-02T14:13:53.256Z,225
2018-09-02T14:14:54.631Z,213
2018-09-02T14:15:55.996Z,208
2018-09-02T14:16:57.360Z,196
2018-09-02T14:17:58.720Z,185
2018-09-02T14:19:00.096Z,180
2018-09-02T14:20:01.477Z,174
2018-09-02T14:21:03.370Z,174
2018-09-02T14:22:04.745Z,174
2018-09-02T14:23:06.126Z,174
2018-09-02T14:24:07.491Z,168
2018-09-02T14:25:08.851Z,168
2018-09-02T14:26:10.226Z,163
2018-09-02T14:27:11.595Z,157
2018-09-02T14:28:12.969Z,157